createdAt,value
2023-05-02T00:01:52.070Z,9.75
2023-05-02T00:04:24.204Z,9.75
2023-05-02T00:06:55.930Z,9.63
2023-05-02T00:09:27.511Z,9.62
2023-05-02T00:11:59.581Z,9.62
2023-05-02T00:14:31.163Z,9.56
2023-05-02T00:17:03.007Z,9.57
2023-05-02T00:19:40.114Z,9.59
2023-05-02T00:22:11.570Z,9.56
2023-05-02T00:24:43.039Z,9.61
2023-05-02T00:27:14.533Z,9.52
2023-05-02T00:29:47.806Z,9.51
2023-05-02T00:32:19.374Z,9.45
2023-05-02T00:34:50.939Z,9.42
2023-05-02T00:37:26.334Z,9.38
2023-05-02T00:39:58.617Z,9.32
2023-05-02T00:42:31.585Z,9.39
2023-05-02T00:45:06.323Z,9.38
2023-05-02T00:47:38.157Z,9.39
2023-05-02T00:50:09.950Z,9.33
2023-05-02T00:52:41.911Z,9.28
2023-05-02T00:55:13.381Z,9.33
2023-05-02T00:57:44.926Z,9.34
2023-05-02T01:00:16.472Z,9.38
2023-05-02T01:02:53.366Z,9.40
2023-05-02T01:05:34.025Z,9.46
2023-05-02T01:08:19.245Z,9.45
2023-05-02T01:11:13.205Z,9.40
2023-05-02T01:13:46.975Z,9.44
2023-05-02T01:16:20.315Z,9.40
2023-05-02T01:18:52.654Z,9.30
2023-05-02T01:21:24.830Z,9.33
2023-05-02T01:24:32.005Z,9.30
2023-05-02T01:27:24.972Z,9.34
2023-05-02T01:29:59.347Z,9.31
2023-05-02T01:32:34.979Z,9.32
2023-05-02T01:35:08.503Z,9.32
2023-05-02T01:37:43.123Z,9.35
2023-05-02T01:40:20.521Z,9.38
2023-05-02T01:42:53.640Z,9.38
2023-05-02T01:45:26.167Z,9.35
2023-05-02T01:47:58.527Z,9.40
2023-05-02T01:50:30.007Z,9.43
2023-05-02T01:53:03.701Z,9.42
2023-05-02T01:55:38.438Z,9.40
2023-05-02T01:58:11.223Z,9.41
2023-05-02T02:00:45.645Z,9.39
2023-05-02T02:03:18.938Z,9.38
2023-05-02T02:05:52.978Z,9.36
2023-05-02T02:08:25.450Z,9.36
2023-05-02T02:11:07.802Z,9.33
2023-05-02T02:13:49.980Z,9.34
2023-05-02T02:16:25.346Z,9.18
2023-05-02T02:19:04.453Z,9.13
2023-05-02T02:21:36.600Z,9.08
2023-05-02T02:24:09.278Z,8.99
2023-05-02T02:26:41.115Z,8.94
2023-05-02T02:29:12.584Z,8.94
2023-05-02T02:31:43.993Z,8.86
2023-05-02T02:34:15.817Z,8.88
2023-05-02T02:37:04.600Z,8.86
2023-05-02T02:39:51.496Z,8.86
2023-05-02T02:42:39.872Z,8.82
2023-05-02T02:45:17.448Z,8.86
2023-05-02T02:48:07.455Z,8.82
2023-05-02T02:51:19.220Z,8.86
2023-05-02T02:54:25.427Z,8.92
2023-05-02T02:57:04.576Z,8.93
2023-05-02T02:59:42.320Z,8.97
2023-05-02T03:02:18.734Z,8.98
2023-05-02T03:04:51.962Z,8.99
2023-05-02T03:07:23.771Z,9.00
2023-05-02T03:09:55.617Z,9.03
2023-05-02T03:12:27.158Z,8.98
2023-05-02T03:15:31.406Z,9.00
2023-05-02T03:18:02.954Z,9.00
2023-05-02T03:20:34.468Z,9.03
2023-05-02T03:23:06.303Z,9.02
2023-05-02T03:25:37.872Z,9.00
2023-05-02T03:28:09.407Z,8.99
2023-05-02T03:30:41.901Z,8.99
2023-05-02T03:33:13.564Z,8.98
2023-05-02T03:35:45.187Z,8.96
2023-05-02T03:38:16.754Z,8.94
2023-05-02T03:40:48.214Z,8.91
2023-05-02T03:43:19.716Z,8.83
2023-05-02T03:45:51.523Z,8.83
2023-05-02T03:48:23.167Z,8.82
2023-05-02T03:50:55.219Z,8.83
2023-05-02T03:53:27.019Z,8.83
2023-05-02T03:55:58.783Z,8.85
2023-05-02T03:58:30.418Z,8.85
2023-05-02T04:01:02.300Z,8.86
2023-05-02T04:03:33.874Z,8.91
2023-05-02T04:06:05.559Z,8.92
2023-05-02T04:08:37.118Z,8.91
2023-05-02T04:11:08.721Z,8.95
2023-05-02T04:13:40.263Z,8.98
2023-05-02T04:16:11.853Z,8.98
2023-05-02T04:18:43.460Z,8.99
2023-05-02T04:21:15.013Z,9.00
2023-05-02T04:23:46.496Z,9.00
2023-05-02T04:26:17.924Z,9.04
2023-05-02T04:28:49.392Z,9.03
2023-05-02T04:31:21.167Z,9.05
2023-05-02T04:33:53.183Z,9.07
2023-05-02T04:36:26.222Z,9.10
2023-05-02T04:38:57.710Z,9.16
2023-05-02T04:41:29.216Z,9.15
2023-05-02T04:44:00.655Z,9.20
2023-05-02T04:46:32.138Z,9.23
2023-05-02T04:49:03.598Z,9.25
2023-05-02T04:51:35.113Z,9.09
2023-05-02T04:54:06.783Z,9.11
2023-05-02T04:56:38.574Z,9.11
2023-05-02T04:59:12.572Z,9.10
2023-05-02T05:01:45.362Z,9.15
2023-05-02T05:04:17.145Z,9.20
2023-05-02T05:06:49.354Z,9.19
2023-05-02T05:09:21.102Z,9.22
2023-05-02T05:11:52.643Z,9.31
2023-05-02T05:14:24.335Z,9.34
2023-05-02T05:16:55.796Z,9.31
2023-05-02T05:19:27.896Z,9.45
2023-05-02T05:21:59.368Z,9.44
2023-05-02T05:24:30.834Z,9.38
2023-05-02T05:27:02.903Z,9.51
2023-05-02T05:29:34.397Z,9.39
2023-05-02T05:32:06.373Z,9.51
2023-05-02T05:34:37.982Z,9.47
2023-05-02T05:37:09.553Z,9.46
2023-05-02T05:39:41.266Z,9.60
2023-05-02T05:42:13.134Z,9.62
2023-05-02T05:44:44.626Z,9.78
2023-05-02T05:47:22.044Z,9.86
2023-05-02T05:49:54.481Z,9.80
2023-05-02T05:52:26.134Z,9.86
2023-05-02T05:54:57.631Z,9.89
2023-05-02T05:57:29.105Z,9.86
2023-05-02T06:00:00.841Z,9.94
2023-05-02T06:02:32.707Z,9.86
2023-05-02T06:05:04.582Z,10.02
2023-05-02T06:07:36.313Z,10.08
2023-05-02T06:10:09.212Z,10.03
2023-05-02T06:12:40.972Z,10.00
2023-05-02T06:15:12.476Z,9.99
2023-05-02T06:17:44.449Z,10.00
2023-05-02T06:20:16.712Z,10.09
2023-05-02T06:22:50.218Z,10.14
2023-05-02T06:25:21.830Z,10.21
2023-05-02T06:27:53.396Z,10.32
2023-05-02T06:30:25.068Z,10.38
2023-05-02T06:32:56.995Z,10.46
2023-05-02T06:35:28.654Z,10.52
2023-05-02T06:38:00.435Z,10.56
2023-05-02T06:40:32.002Z,10.66
2023-05-02T06:43:03.548Z,10.65
2023-05-02T06:45:35.082Z,10.74
2023-05-02T06:48:07.702Z,10.69
2023-05-02T06:50:39.574Z,10.83
2023-05-02T06:53:11.262Z,10.88
2023-05-02T06:55:44.332Z,10.90
2023-05-02T06:58:16.214Z,10.91
2023-05-02T07:00:48.815Z,10.88
2023-05-02T07:03:20.490Z,11.05
2023-05-02T07:05:51.971Z,10.87
2023-05-02T07:08:23.910Z,10.77
2023-05-02T07:10:55.477Z,10.82
2023-05-02T07:13:26.974Z,10.92
2023-05-02T07:15:58.564Z,11.03
2023-05-02T07:18:30.140Z,11.06
2023-05-02T07:21:01.756Z,11.13
2023-05-02T07:23:33.330Z,11.03
2023-05-02T07:26:07.886Z,11.01
2023-05-02T07:28:39.425Z,11.21
2023-05-02T07:31:11.290Z,11.30
2023-05-02T07:33:42.881Z,11.26
2023-05-02T07:36:14.439Z,11.17
2023-05-02T07:38:45.958Z,11.09
2023-05-02T07:41:17.461Z,11.22
2023-05-02T07:43:49.343Z,11.35
2023-05-02T07:46:21.440Z,11.55
2023-05-02T07:48:54.128Z,11.22
2023-05-02T07:51:26.750Z,11.45
2023-05-02T07:53:59.097Z,11.71
2023-05-02T07:56:30.807Z,11.40
2023-05-02T07:59:03.568Z,11.57
2023-05-02T08:01:36.463Z,11.70
2023-05-02T08:04:10.674Z,11.72
2023-05-02T08:06:44.797Z,12.01
2023-05-02T08:09:16.500Z,11.79
2023-05-02T08:11:48.086Z,12.12
2023-05-02T08:14:19.668Z,12.39
2023-05-02T08:16:51.280Z,12.66
2023-05-02T08:19:23.011Z,12.76
2023-05-02T08:21:55.168Z,12.84
2023-05-02T08:24:27.950Z,12.93
2023-05-02T08:26:59.287Z,12.94
2023-05-02T08:29:31.384Z,13.04
2023-05-02T08:32:02.955Z,13.05
2023-05-02T08:34:34.449Z,13.22
2023-05-02T08:37:09.558Z,13.31
2023-05-02T08:39:40.928Z,13.23
2023-05-02T08:42:12.257Z,13.10
2023-05-02T08:44:43.636Z,13.24
2023-05-02T08:47:15.767Z,13.42
2023-05-02T08:49:48.656Z,13.42
2023-05-02T08:52:20.442Z,13.28
2023-05-02T08:54:51.898Z,13.19
2023-05-02T08:57:23.565Z,13.48
2023-05-02T08:59:54.949Z,13.62
2023-05-02T09:02:38.431Z,13.95
2023-05-02T09:05:11.798Z,14.17
2023-05-02T09:07:49.635Z,14.21
2023-05-02T09:10:21.528Z,14.39
2023-05-02T09:12:52.958Z,14.22
2023-05-02T09:15:24.477Z,14.25
2023-05-02T09:17:55.841Z,14.37
2023-05-02T09:20:27.381Z,14.03
2023-05-02T09:22:58.857Z,14.14
2023-05-02T09:25:36.227Z,13.86
2023-05-02T09:28:07.683Z,14.13
2023-05-02T09:30:39.204Z,14.01
2023-05-02T09:33:10.705Z,13.97
2023-05-02T09:35:53.342Z,14.04
2023-05-02T09:38:25.598Z,14.22
2023-05-02T09:40:56.986Z,14.53
2023-05-02T09:43:28.318Z,14.68
2023-05-02T09:45:59.810Z,14.79
2023-05-02T09:48:32.515Z,14.43
2023-05-02T09:51:04.785Z,14.51
2023-05-02T09:53:43.291Z,14.83
2023-05-02T09:56:15.238Z,14.89
2023-05-02T09:58:46.692Z,14.88
2023-05-02T10:01:19.376Z,14.90
2023-05-02T10:03:51.088Z,14.72
2023-05-02T10:06:22.906Z,14.56
2023-05-02T10:08:54.331Z,14.74
2023-05-02T10:11:25.811Z,14.93
2023-05-02T10:13:57.549Z,14.91
2023-05-02T10:16:29.548Z,15.08
2023-05-02T10:19:07.900Z,14.99
2023-05-02T10:21:40.352Z,15.28
2023-05-02T10:24:12.867Z,15.12
2023-05-02T10:26:44.257Z,15.23
2023-05-02T10:29:15.828Z,14.88
2023-05-02T10:31:48.383Z,14.90
2023-05-02T10:34:19.954Z,14.37
2023-05-02T10:36:51.336Z,14.13
2023-05-02T10:39:24.521Z,13.70
2023-05-02T10:41:57.884Z,13.72
2023-05-02T10:44:32.702Z,13.61
2023-05-02T10:47:20.377Z,13.30
2023-05-02T10:49:55.579Z,13.22
2023-05-02T10:52:29.210Z,13.11
2023-05-02T10:55:19.744Z,13.01
2023-05-02T10:57:57.124Z,13.04
2023-05-02T11:00:30.068Z,13.04
2023-05-02T11:03:02.415Z,13.09
2023-05-02T11:05:53.982Z,13.17
2023-05-02T11:08:25.291Z,13.17
2023-05-02T11:10:56.694Z,13.14
2023-05-02T11:13:46.580Z,13.22
2023-05-02T11:16:17.980Z,13.25
2023-05-02T11:18:58.530Z,13.31
2023-05-02T11:21:31.888Z,13.38
2023-05-02T11:24:23.402Z,13.47
2023-05-02T11:27:14.708Z,13.51
2023-05-02T11:29:52.634Z,13.52
2023-05-02T11:32:25.600Z,13.54
2023-05-02T11:34:57.274Z,13.59
2023-05-02T11:37:28.822Z,13.60
2023-05-02T11:40:13.472Z,13.60
2023-05-02T11:42:44.899Z,13.52
2023-05-02T11:45:16.777Z,13.64
2023-05-02T11:47:49.073Z,13.79
2023-05-02T11:50:21.027Z,13.89
2023-05-02T11:52:52.402Z,13.95
2023-05-02T11:55:23.960Z,14.02
2023-05-02T11:57:55.629Z,13.90
2023-05-02T12:00:28.083Z,14.04
2023-05-02T12:02:59.549Z,14.18
2023-05-02T12:05:31.467Z,14.25
2023-05-02T12:08:03.432Z,14.30
2023-05-02T12:10:38.329Z,14.34
2023-05-02T12:13:10.152Z,14.34
2023-05-02T12:15:43.348Z,14.36
2023-05-02T12:18:14.932Z,14.31
2023-05-02T12:20:46.880Z,14.25
2023-05-02T12:23:22.202Z,14.24
2023-05-02T12:25:53.603Z,14.25
2023-05-02T12:28:25.273Z,14.20
2023-05-02T12:30:56.668Z,14.21
2023-05-02T12:33:28.002Z,14.23
2023-05-02T12:36:06.727Z,14.29
2023-05-02T12:38:38.152Z,14.29
2023-05-02T12:41:09.553Z,14.31
2023-05-02T12:43:49.600Z,14.42
2023-05-02T12:46:21.003Z,14.51
2023-05-02T12:49:01.434Z,14.60
2023-05-02T12:51:33.113Z,14.78
2023-05-02T12:54:04.830Z,14.83
2023-05-02T12:56:39.582Z,14.96
2023-05-02T12:59:26.114Z,14.85
2023-05-02T13:01:57.764Z,14.35
2023-05-02T13:04:36.395Z,14.65
2023-05-02T13:07:08.047Z,14.80
2023-05-02T13:09:39.446Z,14.89
2023-05-02T13:12:10.936Z,15.05
2023-05-02T13:14:42.411Z,15.03
2023-05-02T13:17:14.160Z,15.04
2023-05-02T13:19:57.729Z,15.00
2023-05-02T13:22:32.558Z,15.00
2023-05-02T13:25:07.591Z,14.99
2023-05-02T13:27:38.977Z,14.99
2023-05-02T13:30:11.766Z,14.88
2023-05-02T13:32:43.440Z,14.82
2023-05-02T13:35:15.802Z,14.86
2023-05-02T13:37:47.979Z,14.87
2023-05-02T13:40:19.353Z,14.88
2023-05-02T13:42:51.348Z,14.88
2023-05-02T13:45:22.713Z,14.96
2023-05-02T13:47:54.095Z,14.97
2023-05-02T13:50:25.520Z,14.94
2023-05-02T13:52:56.901Z,14.98
2023-05-02T13:55:28.233Z,15.06
2023-05-02T13:57:59.697Z,15.12
2023-05-02T14:00:31.228Z,15.19
2023-05-02T14:03:02.662Z,15.23
2023-05-02T14:05:34.214Z,15.25
2023-05-02T14:08:05.671Z,15.27
2023-05-02T14:10:37.913Z,15.35
2023-05-02T14:13:09.558Z,15.48
2023-05-02T14:15:40.900Z,15.45
2023-05-02T14:18:12.320Z,15.34
2023-05-02T14:20:43.924Z,15.18
2023-05-02T14:23:15.469Z,15.03
2023-05-02T14:25:46.819Z,14.83
2023-05-02T14:28:18.486Z,14.74
2023-05-02T14:30:50.142Z,14.59
2023-05-02T14:33:21.652Z,14.59
2023-05-02T14:35:53.002Z,14.72
2023-05-02T14:38:24.378Z,14.88
2023-05-02T14:40:55.892Z,15.20
2023-05-02T14:43:27.492Z,15.51
2023-05-02T14:45:58.940Z,15.66
2023-05-02T14:48:30.378Z,15.59
2023-05-02T14:51:04.857Z,15.45
2023-05-02T14:53:36.246Z,15.42
2023-05-02T14:56:12.367Z,15.22
2023-05-02T14:58:43.845Z,15.05
2023-05-02T15:01:18.780Z,14.69
2023-05-02T15:06:30.083Z,14.12
2023-05-02T15:09:01.770Z,13.87
2023-05-02T15:11:33.141Z,13.70
2023-05-02T15:14:04.524Z,13.49
2023-05-02T15:16:37.364Z,13.42
2023-05-02T15:19:08.720Z,13.41
2023-05-02T15:21:40.122Z,13.73
2023-05-02T15:24:11.445Z,14.59
2023-05-02T15:26:42.760Z,16.21
2023-05-02T15:29:14.124Z,16.95
2023-05-02T15:31:45.691Z,17.02
2023-05-02T15:34:17.197Z,17.08
2023-05-02T15:36:48.532Z,16.77
2023-05-02T15:39:19.845Z,16.33
2023-05-02T15:41:52.604Z,16.00
2023-05-02T15:44:25.966Z,15.71
2023-05-02T15:46:57.322Z,15.48
2023-05-02T15:49:32.969Z,15.08
2023-05-02T15:52:04.287Z,14.78
2023-05-02T15:54:35.629Z,14.56
2023-05-02T15:57:07.542Z,14.32
2023-05-02T15:59:39.045Z,14.04
2023-05-02T16:02:10.409Z,13.87
2023-05-02T16:04:43.060Z,13.68
2023-05-02T16:07:14.738Z,13.55
2023-05-02T16:09:46.322Z,13.45
2023-05-02T16:12:18.015Z,13.35
2023-05-02T16:14:49.405Z,13.21
2023-05-02T16:17:20.971Z,13.12
2023-05-02T16:19:52.430Z,13.01
2023-05-02T16:22:24.206Z,12.90
2023-05-02T16:24:56.206Z,12.77
2023-05-02T16:27:27.769Z,12.49
2023-05-02T16:29:59.621Z,12.21
2023-05-02T16:32:31.290Z,11.87
2023-05-02T16:35:05.277Z,11.66
2023-05-02T16:37:36.655Z,10.98
2023-05-02T16:40:08.915Z,10.48
2023-05-02T16:42:40.251Z,10.37
2023-05-02T16:45:11.667Z,10.18
2023-05-02T16:47:43.138Z,9.83
2023-05-02T16:50:14.899Z,9.73
2023-05-02T16:52:46.232Z,9.78
2023-05-02T16:55:17.783Z,9.75
2023-05-02T16:57:49.157Z,9.61
2023-05-02T17:00:20.612Z,9.61
2023-05-02T17:02:55.069Z,9.72
2023-05-02T17:05:26.718Z,9.69
2023-05-02T17:07:58.161Z,9.73
2023-05-02T17:10:29.597Z,9.84
2023-05-02T17:13:00.927Z,9.97
2023-05-02T17:15:38.444Z,10.11
2023-05-02T17:18:09.899Z,10.25
2023-05-02T17:20:41.434Z,10.39
2023-05-02T17:23:12.901Z,10.53
2023-05-02T17:25:44.439Z,10.61
2023-05-02T17:28:16.600Z,10.66
2023-05-02T17:30:48.367Z,10.67
2023-05-02T17:33:20.576Z,10.70
2023-05-02T17:35:52.322Z,10.81
2023-05-02T17:38:23.688Z,10.85
2023-05-02T17:40:55.034Z,10.87
2023-05-02T17:43:26.451Z,10.81
2023-05-02T17:45:57.784Z,10.84
2023-05-02T17:48:29.188Z,10.85
2023-05-02T17:51:04.298Z,10.80
2023-05-02T17:53:36.727Z,10.81
2023-05-02T17:56:10.492Z,10.78
2023-05-02T17:58:43.214Z,10.74
2023-05-02T18:01:14.979Z,10.67
2023-05-02T18:03:48.050Z,10.60
2023-05-02T18:06:19.661Z,10.36
2023-05-02T18:08:51.528Z,10.34
2023-05-02T18:11:24.227Z,10.24
2023-05-02T18:13:55.874Z,10.33
2023-05-02T18:16:34.363Z,10.24
2023-05-02T18:19:06.043Z,10.26
2023-05-02T18:21:37.686Z,10.13
2023-05-02T18:24:09.079Z,10.19
2023-05-02T18:26:40.581Z,10.24
2023-05-02T18:29:11.978Z,10.16
2023-05-02T18:31:43.498Z,10.23
2023-05-02T18:34:14.841Z,10.29
2023-05-02T18:36:46.389Z,10.32
2023-05-02T18:39:18.028Z,10.36
2023-05-02T18:41:49.495Z,10.34
2023-05-02T18:44:21.171Z,10.36
2023-05-02T18:46:52.568Z,10.37
2023-05-02T18:49:24.504Z,10.38
2023-05-02T18:51:55.951Z,10.30
2023-05-02T18:54:28.006Z,10.30
2023-05-02T18:56:59.326Z,10.28
2023-05-02T18:59:30.773Z,10.21
2023-05-02T19:02:02.221Z,10.07
2023-05-02T19:04:33.585Z,10.04
2023-05-02T19:07:04.961Z,10.04
2023-05-02T19:09:36.404Z,10.02
2023-05-02T19:12:07.802Z,9.96
2023-05-02T19:14:40.202Z,10.00
2023-05-02T19:17:13.898Z,10.05
2023-05-02T19:19:48.002Z,10.07
2023-05-02T19:22:24.318Z,10.07
2023-05-02T19:24:55.744Z,10.07
2023-05-02T19:27:27.368Z,10.08
2023-05-02T19:29:58.763Z,10.10
2023-05-02T19:32:30.220Z,10.11
2023-05-02T19:35:04.511Z,10.13
2023-05-02T19:37:36.532Z,10.10
2023-05-02T19:40:08.324Z,10.08
2023-05-02T19:42:39.739Z,10.09
2023-05-02T19:45:14.014Z,10.08
2023-05-02T19:47:45.585Z,10.05
2023-05-02T19:50:17.067Z,10.07
2023-05-02T19:52:50.008Z,10.01
2023-05-02T19:55:21.380Z,9.96
2023-05-02T19:57:52.804Z,9.92
2023-05-02T20:00:24.139Z,9.85
2023-05-02T20:02:56.000Z,9.78
2023-05-02T20:05:27.500Z,9.76
2023-05-02T20:07:59.508Z,9.71
2023-05-02T20:10:31.318Z,9.69
2023-05-02T20:13:02.834Z,9.64
2023-05-02T20:15:34.408Z,9.61
2023-05-02T20:18:05.750Z,9.55
2023-05-02T20:20:38.022Z,9.52
2023-05-02T20:23:09.356Z,9.45
2023-05-02T20:25:42.614Z,9.42
2023-05-02T20:28:14.448Z,9.39
2023-05-02T20:30:45.783Z,9.38
2023-05-02T20:33:18.362Z,9.35
2023-05-02T20:35:55.792Z,9.31
2023-05-02T20:38:27.157Z,9.28
2023-05-02T20:40:58.612Z,9.30
2023-05-02T20:43:29.914Z,9.29
2023-05-02T20:46:08.557Z,9.27
2023-05-02T20:48:43.198Z,9.28
2023-05-02T20:51:15.194Z,9.28
2023-05-02T20:53:46.754Z,9.25
2023-05-02T20:56:18.145Z,9.22
2023-05-02T20:58:49.645Z,9.22
2023-05-02T21:01:21.071Z,9.19
2023-05-02T21:03:52.483Z,9.18
2023-05-02T21:06:23.974Z,9.13
2023-05-02T21:08:56.567Z,9.07
2023-05-02T21:11:28.086Z,9.00
2023-05-02T21:13:59.396Z,8.95
2023-05-02T21:16:30.959Z,8.89
2023-05-02T21:19:02.443Z,8.87
2023-05-02T21:21:33.791Z,8.81
2023-05-02T21:24:05.434Z,8.73
2023-05-02T21:26:36.837Z,8.70
2023-05-02T21:29:08.262Z,8.70
2023-05-02T21:31:39.840Z,8.70
2023-05-02T21:34:11.375Z,8.69
2023-05-02T21:36:43.253Z,8.68
2023-05-02T21:39:16.277Z,8.68
2023-05-02T21:41:47.659Z,8.67
2023-05-02T21:44:19.362Z,8.67
2023-05-02T21:46:51.529Z,8.65
2023-05-02T21:49:22.973Z,8.61
2023-05-02T21:51:54.331Z,8.59
2023-05-02T21:54:25.679Z,8.58
2023-05-02T21:56:57.084Z,8.48
2023-05-02T21:59:28.507Z,8.41
2023-05-02T22:01:59.908Z,8.40
2023-05-02T22:04:31.331Z,8.41
2023-05-02T22:07:02.660Z,8.39
2023-05-02T22:09:34.124Z,8.40
2023-05-02T22:12:05.665Z,8.34
2023-05-02T22:14:44.547Z,8.28
2023-05-02T22:17:18.511Z,8.25
2023-05-02T22:19:50.094Z,8.22
2023-05-02T22:22:21.534Z,8.19
2023-05-02T22:24:52.953Z,8.12
2023-05-02T22:27:24.347Z,8.12
2023-05-02T22:29:56.335Z,8.10
2023-05-02T22:32:27.784Z,8.07
2023-05-02T22:34:59.210Z,8.05
2023-05-02T22:37:30.695Z,8.03
2023-05-02T22:40:02.288Z,8.05
2023-05-02T22:42:33.821Z,8.06
2023-05-02T22:45:07.499Z,8.06
2023-05-02T22:47:39.199Z,8.05
2023-05-02T22:50:11.138Z,8.04
2023-05-02T22:52:42.986Z,8.01
2023-05-02T22:55:14.647Z,7.95
2023-05-02T22:57:45.973Z,7.90
2023-05-02T23:00:17.570Z,7.89
2023-05-02T23:02:49.108Z,7.93
2023-05-02T23:05:20.563Z,7.95
2023-05-02T23:07:52.031Z,7.98
2023-05-02T23:10:23.434Z,7.97
2023-05-02T23:12:54.810Z,7.98
2023-05-02T23:15:26.231Z,7.95
2023-05-02T23:17:57.779Z,7.98
2023-05-02T23:20:29.218Z,8.00
2023-05-02T23:23:00.690Z,7.92
2023-05-02T23:25:33.105Z,7.91
2023-05-02T23:28:04.826Z,7.87
2023-05-02T23:30:37.884Z,7.83
2023-05-02T23:33:09.417Z,7.83
2023-05-02T23:35:40.899Z,7.83
2023-05-02T23:38:12.626Z,7.78
2023-05-02T23:40:44.001Z,7.67
2023-05-02T23:43:15.933Z,7.49
2023-05-02T23:45:47.391Z,7.51
2023-05-02T23:48:19.998Z,7.50
2023-05-02T23:50:51.338Z,7.53
2023-05-02T23:53:22.781Z,7.50
2023-05-02T23:55:54.219Z,7.47
2023-05-02T23:58:25.787Z,7.46
